createdAt,value
2023-01-03T00:01:53.270Z,47.96
2023-01-03T00:04:20.634Z,47.68
2023-01-03T00:06:50.151Z,47.80
2023-01-03T00:09:19.567Z,47.89
2023-01-03T00:12:06.534Z,47.81
2023-01-03T00:14:36.999Z,47.78
2023-01-03T00:17:05.378Z,47.47
2023-01-03T00:19:35.179Z,47.84
2023-01-03T00:22:02.463Z,47.61
2023-01-03T00:24:29.185Z,47.63
2023-01-03T00:26:56.029Z,47.67
2023-01-03T00:29:22.875Z,47.67
2023-01-03T00:31:49.850Z,47.49
2023-01-03T00:34:17.164Z,47.48
2023-01-03T00:36:43.903Z,47.77
2023-01-03T00:39:11.972Z,47.35
2023-01-03T00:41:40.307Z,47.50
2023-01-03T00:44:07.140Z,47.39
2023-01-03T00:46:34.738Z,47.68
2023-01-03T00:49:02.038Z,47.65
2023-01-03T00:51:31.751Z,47.69
2023-01-03T00:53:59.846Z,47.56
2023-01-03T00:56:29.352Z,47.65
2023-01-03T00:58:56.257Z,47.66
2023-01-03T01:01:30.070Z,47.51
2023-01-03T01:04:05.607Z,47.35
2023-01-03T01:06:35.135Z,47.65
2023-01-03T01:09:04.835Z,47.32
2023-01-03T01:11:38.680Z,47.38
2023-01-03T01:14:19.937Z,47.27
2023-01-03T01:16:53.709Z,47.18
2023-01-03T01:19:25.031Z,47.58
2023-01-03T01:21:51.963Z,47.22
2023-01-03T01:24:19.073Z,47.25
2023-01-03T01:26:46.661Z,47.22
2023-01-03T01:29:14.300Z,47.19
2023-01-03T01:31:41.924Z,47.27
2023-01-03T01:34:09.099Z,47.01
2023-01-03T01:36:37.781Z,47.34
2023-01-03T01:39:10.996Z,47.16
2023-01-03T01:41:56.949Z,47.29
2023-01-03T01:44:45.254Z,47.33
2023-01-03T01:47:38.210Z,47.45
2023-01-03T01:50:15.654Z,46.99
2023-01-03T01:53:02.785Z,47.08
2023-01-03T01:55:47.964Z,47.24
2023-01-03T01:58:20.312Z,46.91
2023-01-03T02:00:47.875Z,46.86
2023-01-03T02:03:14.815Z,47.14
2023-01-03T02:05:50.816Z,47.00
2023-01-03T02:08:17.824Z,46.75
2023-01-03T02:10:56.489Z,47.26
2023-01-03T02:13:35.823Z,47.24
2023-01-03T02:16:13.239Z,47.08
2023-01-03T02:18:46.872Z,47.19
2023-01-03T02:21:29.972Z,47.43
2023-01-03T02:24:11.841Z,47.01
2023-01-03T02:27:12.891Z,47.33
2023-01-03T02:30:17.130Z,47.17
2023-01-03T02:32:47.831Z,46.92
2023-01-03T02:35:21.568Z,47.38
2023-01-03T02:38:06.705Z,47.10
2023-01-03T02:40:47.527Z,47.14
2023-01-03T02:43:32.455Z,47.35
2023-01-03T02:46:03.989Z,47.10
2023-01-03T02:48:34.694Z,47.22
2023-01-03T02:51:02.175Z,47.08
2023-01-03T02:53:38.689Z,46.81
2023-01-03T02:56:08.429Z,47.10
2023-01-03T02:58:37.747Z,46.81
2023-01-03T03:01:06.558Z,47.25
2023-01-03T03:03:37.764Z,46.89
2023-01-03T03:06:07.873Z,46.98
2023-01-03T03:08:34.708Z,47.15
2023-01-03T03:11:20.328Z,47.20
2023-01-03T03:13:50.783Z,47.33
2023-01-03T03:16:42.182Z,47.01
2023-01-03T03:19:51.707Z,47.33
2023-01-03T03:22:55.478Z,47.26
2023-01-03T03:25:29.531Z,46.91
2023-01-03T03:28:19.990Z,47.08
2023-01-03T03:30:59.317Z,46.93
2023-01-03T03:33:32.976Z,47.22
2023-01-03T03:36:06.751Z,46.98
2023-01-03T03:38:43.268Z,47.31
2023-01-03T03:41:34.924Z,47.01
2023-01-03T03:44:28.416Z,47.29
2023-01-03T03:47:04.147Z,47.15
2023-01-03T03:49:40.252Z,47.30
2023-01-03T03:52:11.265Z,47.01
2023-01-03T03:54:39.622Z,46.80
2023-01-03T03:57:15.184Z,47.33
2023-01-03T03:59:46.129Z,46.91
2023-01-03T04:02:14.484Z,46.97
2023-01-03T04:04:45.201Z,47.33
2023-01-03T04:07:11.802Z,46.99
2023-01-03T04:09:38.561Z,46.95
2023-01-03T04:12:05.471Z,47.05
2023-01-03T04:14:32.177Z,47.21
2023-01-03T04:16:58.965Z,47.12
2023-01-03T04:19:25.757Z,47.10
2023-01-03T04:21:52.608Z,46.71
2023-01-03T04:24:20.840Z,46.76
2023-01-03T04:26:55.328Z,46.90
2023-01-03T04:29:23.830Z,46.75
2023-01-03T04:31:50.585Z,46.85
2023-01-03T04:34:17.405Z,46.80
2023-01-03T04:36:44.165Z,47.06
2023-01-03T04:39:11.212Z,46.71
2023-01-03T04:41:37.900Z,46.93
2023-01-03T04:44:04.993Z,47.04
2023-01-03T04:46:32.899Z,46.99
2023-01-03T04:49:00.014Z,47.18
2023-01-03T04:51:27.112Z,47.04
2023-01-03T04:53:54.079Z,47.06
2023-01-03T04:56:25.295Z,46.85
2023-01-03T04:58:52.027Z,47.05
2023-01-03T05:01:18.851Z,47.10
2023-01-03T05:03:45.760Z,47.08
2023-01-03T05:06:13.038Z,46.88
2023-01-03T05:08:40.196Z,46.85
2023-01-03T05:11:07.290Z,47.16
2023-01-03T05:13:34.099Z,46.96
2023-01-03T05:16:08.717Z,46.97
2023-01-03T05:18:35.823Z,47.02
2023-01-03T05:21:32.180Z,47.28
2023-01-03T05:24:17.501Z,47.03
2023-01-03T05:26:44.413Z,46.96
2023-01-03T05:29:12.855Z,47.21
2023-01-03T05:31:39.758Z,47.01
2023-01-03T05:34:06.426Z,47.20
2023-01-03T05:36:33.289Z,46.94
2023-01-03T05:39:00.084Z,47.19
2023-01-03T05:41:46.201Z,47.05
2023-01-03T05:44:13.366Z,47.22
2023-01-03T05:46:40.028Z,47.14
2023-01-03T05:49:06.914Z,47.22
2023-01-03T05:51:33.728Z,47.21
2023-01-03T05:54:00.533Z,47.22
2023-01-03T05:56:27.683Z,47.44
2023-01-03T05:58:54.705Z,47.36
2023-01-03T06:01:21.529Z,47.47
2023-01-03T06:03:48.540Z,47.09
2023-01-03T06:06:16.349Z,47.30
2023-01-03T06:08:43.228Z,47.41
2023-01-03T06:11:12.344Z,47.19
2023-01-03T06:13:40.318Z,47.28
2023-01-03T06:16:28.665Z,47.70
2023-01-03T06:18:56.130Z,47.33
2023-01-03T06:21:22.911Z,47.26
2023-01-03T06:23:49.694Z,47.55
2023-01-03T06:26:19.897Z,47.27
2023-01-03T06:28:46.760Z,47.54
2023-01-03T06:31:13.853Z,47.25
2023-01-03T06:33:41.530Z,47.21
2023-01-03T06:36:10.962Z,47.33
2023-01-03T06:38:38.441Z,47.36
2023-01-03T06:41:05.544Z,47.38
2023-01-03T06:43:32.466Z,47.21
2023-01-03T06:46:18.875Z,47.37
2023-01-03T06:49:05.167Z,47.19
2023-01-03T06:51:51.024Z,47.46
2023-01-03T06:54:29.429Z,47.13
2023-01-03T06:56:56.601Z,47.09
2023-01-03T06:59:23.980Z,46.69
2023-01-03T07:01:52.004Z,46.42
2023-01-03T07:04:25.156Z,46.38
2023-01-03T07:06:56.666Z,46.44
2023-01-03T07:09:24.437Z,46.55
2023-01-03T07:11:51.377Z,47.10
2023-01-03T07:14:19.222Z,47.02
2023-01-03T07:16:47.417Z,46.74
2023-01-03T07:19:18.979Z,47.25
2023-01-03T07:21:46.151Z,47.37
2023-01-03T07:24:15.510Z,47.21
2023-01-03T07:26:42.359Z,47.64
2023-01-03T07:29:10.304Z,47.85
2023-01-03T07:31:41.189Z,47.80
2023-01-03T07:34:09.245Z,48.12
2023-01-03T07:36:36.784Z,48.29
2023-01-03T07:39:03.899Z,47.95
2023-01-03T07:41:49.280Z,48.31
2023-01-03T07:44:16.146Z,48.28
2023-01-03T07:46:42.837Z,48.28
2023-01-03T07:49:11.913Z,48.58
2023-01-03T07:51:39.489Z,48.85
2023-01-03T07:54:07.666Z,49.19
2023-01-03T07:56:34.730Z,49.71
2023-01-03T07:59:02.351Z,49.88
2023-01-03T08:01:30.897Z,49.76
2023-01-03T08:03:57.904Z,49.60
2023-01-03T08:06:25.065Z,49.66
2023-01-03T08:09:14.826Z,49.69
2023-01-03T08:12:06.389Z,49.65
2023-01-03T08:14:41.240Z,49.84
2023-01-03T08:17:11.323Z,49.88
2023-01-03T08:19:45.875Z,49.43
2023-01-03T08:22:19.253Z,49.47
2023-01-03T08:24:46.024Z,49.78
2023-01-03T08:27:12.815Z,49.74
2023-01-03T08:29:39.797Z,49.79
2023-01-03T08:32:06.695Z,49.75
2023-01-03T08:34:36.568Z,49.66
2023-01-03T08:37:07.884Z,50.13
2023-01-03T08:39:44.609Z,49.72
2023-01-03T08:42:13.228Z,49.75
2023-01-03T08:44:40.438Z,49.89
2023-01-03T08:47:08.773Z,50.30
2023-01-03T08:49:35.671Z,49.93
2023-01-03T08:52:02.622Z,50.09
2023-01-03T08:54:29.357Z,50.05
2023-01-03T08:56:56.316Z,49.96
2023-01-03T08:59:23.081Z,50.16
2023-01-03T09:01:50.118Z,50.25
2023-01-03T09:04:17.001Z,50.31
2023-01-03T09:06:43.741Z,49.95
2023-01-03T09:09:10.495Z,50.11
2023-01-03T09:11:37.239Z,50.39
2023-01-03T09:14:03.926Z,50.48
2023-01-03T09:16:30.811Z,50.38
2023-01-03T09:18:59.162Z,50.41
2023-01-03T09:21:25.891Z,50.21
2023-01-03T09:23:52.557Z,50.46
2023-01-03T09:26:19.467Z,50.24
2023-01-03T09:28:46.178Z,50.37
2023-01-03T09:31:13.119Z,50.19
2023-01-03T09:33:40.036Z,50.58
2023-01-03T09:36:07.088Z,50.49
2023-01-03T09:38:34.016Z,50.31
2023-01-03T09:41:11.484Z,50.72
2023-01-03T09:43:44.257Z,50.62
2023-01-03T09:46:18.094Z,50.81
2023-01-03T09:48:45.388Z,50.58
2023-01-03T09:51:53.534Z,50.86
2023-01-03T09:54:52.669Z,51.04
2023-01-03T09:57:45.611Z,51.06
2023-01-03T10:00:41.271Z,51.12
2023-01-03T10:03:26.964Z,51.04
2023-01-03T10:06:22.274Z,51.24
2023-01-03T10:09:07.180Z,51.04
2023-01-03T10:11:52.623Z,50.97
2023-01-03T10:14:50.092Z,51.49
2023-01-03T10:17:50.004Z,52.03
2023-01-03T10:20:35.060Z,51.91
2023-01-03T10:23:04.024Z,52.06
2023-01-03T10:25:30.856Z,52.06
2023-01-03T10:28:28.387Z,52.63
2023-01-03T10:31:32.122Z,52.45
2023-01-03T10:33:58.971Z,52.79
2023-01-03T10:36:25.617Z,52.77
2023-01-03T10:39:06.874Z,52.77
2023-01-03T10:41:42.848Z,52.77
2023-01-03T10:44:32.029Z,52.73
2023-01-03T10:47:09.605Z,52.44
2023-01-03T10:49:36.489Z,52.26
2023-01-03T10:52:16.533Z,52.49
2023-01-03T10:54:43.841Z,52.45
2023-01-03T10:57:48.875Z,52.57
2023-01-03T11:00:40.065Z,52.51
2023-01-03T11:03:17.139Z,52.60
2023-01-03T11:05:56.739Z,52.45
2023-01-03T11:08:46.877Z,52.75
2023-01-03T11:11:39.520Z,52.99
2023-01-03T11:14:10.021Z,52.92
2023-01-03T11:16:36.905Z,52.61
2023-01-03T11:19:05.869Z,52.74
2023-01-03T11:21:42.294Z,53.08
2023-01-03T11:24:20.843Z,52.86
2023-01-03T11:27:29.481Z,53.65
2023-01-03T11:30:33.462Z,53.56
2023-01-03T11:33:27.253Z,53.47
2023-01-03T11:36:08.125Z,53.39
2023-01-03T11:38:50.701Z,53.58
2023-01-03T11:41:42.284Z,53.49
2023-01-03T11:44:30.223Z,53.71
2023-01-03T11:47:09.929Z,53.48
2023-01-03T11:49:50.088Z,53.55
2023-01-03T11:52:33.755Z,53.63
2023-01-03T11:55:27.971Z,53.64
2023-01-03T11:58:16.955Z,53.44
2023-01-03T12:00:56.468Z,53.23
2023-01-03T12:03:41.298Z,53.07
2023-01-03T12:06:22.379Z,53.60
2023-01-03T12:09:17.711Z,53.60
2023-01-03T12:12:00.672Z,53.31
2023-01-03T12:14:41.590Z,53.69
2023-01-03T12:17:14.274Z,53.49
2023-01-03T12:19:53.139Z,53.36
2023-01-03T12:22:41.994Z,53.28
2023-01-03T12:25:36.065Z,53.35
2023-01-03T12:28:11.767Z,53.12
2023-01-03T12:31:10.618Z,52.93
2023-01-03T12:33:49.469Z,52.50
2023-01-03T12:36:34.504Z,52.75
2023-01-03T12:39:15.494Z,53.13
2023-01-03T12:41:51.136Z,52.89
2023-01-03T12:44:27.512Z,53.00
2023-01-03T12:46:56.249Z,52.75
2023-01-03T12:49:29.270Z,52.60
2023-01-03T12:51:55.989Z,52.86
2023-01-03T12:54:42.461Z,52.74
2023-01-03T12:57:35.367Z,52.81
2023-01-03T13:00:23.862Z,52.60
2023-01-03T13:03:01.489Z,52.51
2023-01-03T13:05:45.439Z,52.56
2023-01-03T13:08:25.840Z,52.49
2023-01-03T13:10:55.017Z,52.35
2023-01-03T13:13:21.900Z,52.58
2023-01-03T13:15:48.966Z,52.13
2023-01-03T13:18:21.818Z,52.22
2023-01-03T13:20:52.510Z,52.14
2023-01-03T13:23:35.925Z,52.03
2023-01-03T13:26:05.841Z,52.06
2023-01-03T13:28:37.485Z,51.69
2023-01-03T13:31:14.260Z,52.02
2023-01-03T13:33:53.958Z,51.97
2023-01-03T13:36:21.878Z,51.62
2023-01-03T13:38:48.806Z,51.86
2023-01-03T13:41:37.012Z,51.82
2023-01-03T13:44:19.567Z,51.63
2023-01-03T13:46:47.320Z,51.26
2023-01-03T13:49:20.403Z,51.52
2023-01-03T13:51:53.920Z,51.12
2023-01-03T13:54:20.567Z,50.90
2023-01-03T13:56:50.007Z,51.04
2023-01-03T13:59:26.952Z,51.01
2023-01-03T14:02:15.759Z,51.05
2023-01-03T14:04:45.480Z,50.78
2023-01-03T14:07:39.348Z,51.22
2023-01-03T14:10:14.900Z,51.05
2023-01-03T14:12:44.456Z,50.92
2023-01-03T14:15:25.256Z,51.23
2023-01-03T14:17:56.196Z,51.04
2023-01-03T14:20:35.245Z,51.12
2023-01-03T14:23:23.860Z,51.46
2023-01-03T14:25:52.819Z,51.52
2023-01-03T14:28:25.592Z,51.72
2023-01-03T14:30:55.595Z,51.54
2023-01-03T14:33:30.330Z,51.79
2023-01-03T14:36:09.085Z,51.86
2023-01-03T14:38:36.300Z,52.15
2023-01-03T14:41:03.571Z,51.73
2023-01-03T14:43:32.680Z,51.92
2023-01-03T14:46:08.003Z,51.75
2023-01-03T14:48:34.965Z,51.96
2023-01-03T14:51:03.722Z,52.11
2023-01-03T14:53:32.925Z,52.24
2023-01-03T14:56:00.103Z,52.21
2023-01-03T14:58:34.229Z,52.02
2023-01-03T15:01:03.049Z,52.22
2023-01-03T15:03:33.574Z,52.02
2023-01-03T15:06:01.353Z,52.19
2023-01-03T15:08:32.043Z,52.46
2023-01-03T15:11:08.855Z,52.65
2023-01-03T15:13:42.202Z,52.52
2023-01-03T15:16:29.962Z,52.90
2023-01-03T15:19:21.037Z,52.62
2023-01-03T15:21:48.340Z,52.81
2023-01-03T15:24:20.227Z,52.56
2023-01-03T15:26:48.748Z,52.88
2023-01-03T15:29:20.587Z,52.81
2023-01-03T15:31:53.584Z,52.94
2023-01-03T15:34:41.604Z,53.16
2023-01-03T15:37:15.429Z,53.05
2023-01-03T15:39:45.991Z,53.07
2023-01-03T15:42:44.650Z,53.13
2023-01-03T15:45:24.941Z,53.17
2023-01-03T15:47:55.714Z,53.02
2023-01-03T15:50:23.011Z,53.14
2023-01-03T15:52:49.701Z,52.92
2023-01-03T15:55:17.097Z,53.11
2023-01-03T15:57:50.744Z,53.07
2023-01-03T16:00:20.887Z,53.33
2023-01-03T16:02:47.824Z,52.97
2023-01-03T16:05:21.609Z,53.07
2023-01-03T16:07:49.642Z,53.19
2023-01-03T16:10:16.380Z,53.02
2023-01-03T16:12:43.208Z,53.08
2023-01-03T16:15:19.448Z,53.38
2023-01-03T16:17:46.353Z,53.25
2023-01-03T16:20:15.968Z,52.90
2023-01-03T16:22:57.396Z,53.15
2023-01-03T16:25:27.097Z,53.32
2023-01-03T16:27:53.855Z,53.30
2023-01-03T16:30:20.588Z,53.32
2023-01-03T16:32:47.391Z,53.33
2023-01-03T16:35:18.354Z,53.25
2023-01-03T16:37:45.200Z,53.16
2023-01-03T16:40:15.402Z,53.38
2023-01-03T16:42:42.072Z,53.48
2023-01-03T16:45:08.915Z,53.64
2023-01-03T16:47:36.025Z,53.72
2023-01-03T16:50:14.852Z,53.71
2023-01-03T16:52:46.307Z,53.76
2023-01-03T16:55:18.134Z,53.61
2023-01-03T16:57:50.226Z,53.50
2023-01-03T17:00:29.736Z,53.57
2023-01-03T17:03:00.091Z,53.49
2023-01-03T17:05:27.633Z,53.39
2023-01-03T17:08:01.713Z,53.63
2023-01-03T17:10:35.013Z,53.46
2023-01-03T17:13:10.166Z,53.25
2023-01-03T17:15:39.133Z,53.23
2023-01-03T17:18:05.872Z,53.17
2023-01-03T17:20:32.666Z,53.10
2023-01-03T17:23:00.388Z,53.06
2023-01-03T17:25:27.348Z,52.95
2023-01-03T17:27:56.677Z,52.74
2023-01-03T17:30:26.478Z,52.78
2023-01-03T17:32:55.315Z,52.46
2023-01-03T17:35:22.238Z,52.65
2023-01-03T17:40:45.084Z,52.29
2023-01-03T17:43:20.824Z,52.10
2023-01-03T17:46:08.293Z,52.24
2023-01-03T17:48:53.811Z,52.20
2023-01-03T17:51:21.392Z,51.72
2023-01-03T17:53:49.770Z,51.80
2023-01-03T17:56:18.365Z,52.13
2023-01-03T17:58:52.150Z,51.70
2023-01-03T18:01:22.749Z,51.89
2023-01-03T18:03:50.188Z,51.84
2023-01-03T18:06:21.768Z,51.39
2023-01-03T18:08:48.843Z,51.41
2023-01-03T18:11:18.161Z,51.34
2023-01-03T18:13:46.273Z,51.36
2023-01-03T18:16:21.850Z,51.61
2023-01-03T18:18:50.731Z,51.20
2023-01-03T18:21:21.515Z,51.13
2023-01-03T18:24:01.695Z,51.05
2023-01-03T18:26:33.603Z,51.10
2023-01-03T18:29:00.823Z,50.86
2023-01-03T18:31:27.630Z,50.82
2023-01-03T18:33:54.556Z,51.18
2023-01-03T18:36:30.241Z,51.09
2023-01-03T18:39:06.592Z,50.65
2023-01-03T18:41:34.068Z,50.76
2023-01-03T18:44:01.087Z,50.77
2023-01-03T18:46:28.625Z,50.91
2023-01-03T18:48:55.658Z,50.44
2023-01-03T18:51:25.128Z,50.54
2023-01-03T18:53:57.322Z,50.63
2023-01-03T18:56:32.658Z,50.19
2023-01-03T18:59:11.475Z,50.32
2023-01-03T19:01:38.331Z,50.36
2023-01-03T19:04:05.509Z,50.10
2023-01-03T19:06:33.775Z,50.32
2023-01-03T19:09:03.478Z,50.35
2023-01-03T19:11:36.078Z,50.10
2023-01-03T19:14:04.126Z,49.96
2023-01-03T19:16:35.904Z,49.95
2023-01-03T19:19:04.142Z,50.00
2023-01-03T19:21:36.266Z,50.01
2023-01-03T19:24:08.203Z,49.69
2023-01-03T19:26:38.632Z,49.96
2023-01-03T19:29:07.490Z,49.77
2023-01-03T19:31:44.817Z,49.97
2023-01-03T19:34:21.085Z,49.41
2023-01-03T19:36:52.494Z,49.71
2023-01-03T19:39:25.826Z,49.41
2023-01-03T19:42:19.025Z,49.39
2023-01-03T19:44:52.748Z,49.34
2023-01-03T19:47:21.433Z,49.19
2023-01-03T19:49:49.799Z,49.37
2023-01-03T19:52:17.223Z,49.27
2023-01-03T19:54:44.513Z,49.27
2023-01-03T19:57:22.871Z,49.21
2023-01-03T19:59:53.466Z,49.32
2023-01-03T20:02:32.757Z,49.29
2023-01-03T20:05:00.163Z,49.20
2023-01-03T20:07:27.109Z,49.10
2023-01-03T20:09:53.953Z,49.20
2023-01-03T20:12:28.745Z,48.96
2023-01-03T20:15:01.317Z,49.00
2023-01-03T20:17:34.128Z,49.10
2023-01-03T20:20:00.945Z,48.97
2023-01-03T20:23:03.261Z,49.03
2023-01-03T20:25:32.063Z,49.04
2023-01-03T20:27:59.603Z,48.83
2023-01-03T20:30:28.628Z,48.63
2023-01-03T20:32:55.781Z,48.69
2023-01-03T20:36:07.549Z,48.86
2023-01-03T20:38:12.105Z,48.74
2023-01-03T20:40:39.250Z,48.50
2023-01-03T20:43:14.792Z,48.77
2023-01-03T20:45:45.567Z,48.71
2023-01-03T20:48:16.704Z,48.55
2023-01-03T20:50:48.128Z,48.45
2023-01-03T20:53:16.015Z,48.75
2023-01-03T20:55:42.591Z,48.53
2023-01-03T20:58:13.466Z,48.49
2023-01-03T21:00:40.287Z,48.40
2023-01-03T21:03:07.452Z,48.62
2023-01-03T21:05:34.431Z,48.25
2023-01-03T21:08:19.805Z,48.40
2023-01-03T21:10:52.792Z,48.35
2023-01-03T21:13:22.886Z,48.50
2023-01-03T21:15:50.008Z,48.37
2023-01-03T21:18:16.890Z,48.52
2023-01-03T21:20:43.941Z,48.32
2023-01-03T21:23:20.356Z,48.39
2023-01-03T21:25:47.310Z,48.46
2023-01-03T21:28:13.940Z,48.18
2023-01-03T21:30:41.034Z,48.14
2023-01-03T21:33:11.550Z,48.41
2023-01-03T21:35:41.062Z,48.20
2023-01-03T21:38:09.046Z,48.47
2023-01-03T21:40:35.666Z,48.48
2023-01-03T21:43:05.106Z,48.29
2023-01-03T21:45:39.285Z,48.28
2023-01-03T21:48:11.464Z,48.49
2023-01-03T21:50:41.572Z,48.40
2023-01-03T21:53:23.669Z,48.11
2023-01-03T21:55:51.866Z,48.25
2023-01-03T21:58:26.781Z,48.24
2023-01-03T22:01:00.209Z,48.40
2023-01-03T22:03:50.592Z,48.42
2023-01-03T22:06:24.368Z,48.19
2023-01-03T22:08:56.671Z,48.46
2023-01-03T22:11:25.024Z,48.43
2023-01-03T22:13:56.225Z,48.34
2023-01-03T22:16:22.927Z,48.23
2023-01-03T22:18:49.629Z,48.29
2023-01-03T22:21:16.386Z,48.35
2023-01-03T22:23:47.963Z,48.32
2023-01-03T22:26:15.101Z,48.60
2023-01-03T22:28:54.920Z,48.43
2023-01-03T22:31:27.512Z,48.40
2023-01-03T22:33:55.458Z,48.47
2023-01-03T22:36:21.958Z,48.43
2023-01-03T22:38:48.583Z,48.45
2023-01-03T22:41:15.890Z,48.52
2023-01-03T22:43:42.665Z,48.46
2023-01-03T22:46:09.956Z,48.50
2023-01-03T22:48:36.694Z,48.43
2023-01-03T22:51:04.358Z,48.62
2023-01-03T22:53:33.312Z,48.62
2023-01-03T22:56:00.151Z,48.56
2023-01-03T22:58:26.873Z,48.48
2023-01-03T23:00:53.500Z,48.48
2023-01-03T23:03:20.235Z,48.55
2023-01-03T23:05:46.795Z,48.30
2023-01-03T23:08:13.475Z,48.49
2023-01-03T23:10:40.052Z,48.21
2023-01-03T23:13:06.801Z,48.37
2023-01-03T23:15:33.347Z,48.32
2023-01-03T23:18:00.621Z,48.28
2023-01-03T23:20:31.484Z,48.07
2023-01-03T23:23:02.973Z,48.33
2023-01-03T23:25:30.945Z,48.28
2023-01-03T23:27:57.549Z,48.23
2023-01-03T23:30:24.246Z,47.97
2023-01-03T23:32:50.965Z,47.98
2023-01-03T23:35:18.570Z,48.20
2023-01-03T23:37:47.278Z,48.22
2023-01-03T23:40:14.066Z,48.09
2023-01-03T23:42:40.736Z,47.91
2023-01-03T23:45:07.568Z,47.99
2023-01-03T23:47:34.229Z,47.93
2023-01-03T23:50:00.755Z,47.87
2023-01-03T23:52:27.499Z,48.21
2023-01-03T23:55:00.071Z,48.11
2023-01-03T23:57:29.169Z,47.97
2023-01-03T23:59:55.698Z,47.90
